Gaston, North Carolina
Current Conditions -  °F | °C
As of 11:15 AM on Friday 21 Nov 2014 (Local Time) from KIXA Reporting Station
Clear Clear  
Wind Chill: 37°   Ceiling: Unl
Heat Index: 43°   Visibility: 10mi
Dew Point: 14°   Wind: 9mph
Humidity: 31%   Direction: 310°NW
Pressure: 30.45"   Gusts: 18mph
Location:  36.5°N, 77.64°W
Report Text: KIXA 211615Z AUTO 31008G16KT 10SM CLR 06/M10 A3045 RMK AO2
Loading
Personal Weather Stations






























Interactive Weather Map New forecast layout! Learn more

10-Day Weather Forecast

Advertisements
Track Severe Weather on mobile